sensor_id;sensor_type;location;lat;lon;timestamp;P1;durP1;ratioP1;P2;durP2;ratioP2
22549;SDS011;11441;57.164;-2.120;2023-06-01T00:00:09;4.78;;;0.93;;
22549;SDS011;11441;57.164;-2.120;2023-06-01T00:02:39;1.70;;;0.30;;
22549;SDS011;11441;57.164;-2.120;2023-06-01T00:05:07;0.90;;;0.70;;
22549;SDS011;11441;57.164;-2.120;2023-06-01T00:07:35;0.43;;;0.43;;
22549;SDS011;11441;57.164;-2.120;2023-06-01T00:10:20;0.60;;;0.60;;
22549;SDS011;11441;57.164;-2.120;2023-06-01T00:12:47;0.47;;;0.30;;
22549;SDS011;11441;57.164;-2.120;2023-06-01T00:15:14;1.65;;;0.60;;
22549;SDS011;11441;57.164;-2.120;2023-06-01T00:17:41;0.65;;;0.43;;
22549;SDS011;11441;57.164;-2.120;2023-06-01T00:20:08;3.13;;;0.40;;
22549;SDS011;11441;57.164;-2.120;2023-06-01T00:22:35;0.52;;;0.32;;
22549;SDS011;11441;57.164;-2.120;2023-06-01T00:25:06;3.30;;;0.60;;
22549;SDS011;11441;57.164;-2.120;2023-06-01T00:27:34;1.20;;;0.50;;
22549;SDS011;11441;57.164;-2.120;2023-06-01T00:30:02;0.70;;;0.45;;
22549;SDS011;11441;57.164;-2.120;2023-06-01T00:32:29;2.05;;;0.43;;
22549;SDS011;11441;57.164;-2.120;2023-06-01T00:34:56;0.93;;;0.50;;
22549;SDS011;11441;57.164;-2.120;2023-06-01T00:37:24;2.55;;;0.50;;
22549;SDS011;11441;57.164;-2.120;2023-06-01T00:39:51;0.50;;;0.30;;
22549;SDS011;11441;57.164;-2.120;2023-06-01T00:42:18;1.30;;;0.57;;
22549;SDS011;11441;57.164;-2.120;2023-06-01T00:44:45;0.70;;;0.40;;
22549;SDS011;11441;57.164;-2.120;2023-06-01T00:47:12;1.55;;;0.30;;
22549;SDS011;11441;57.164;-2.120;2023-06-01T00:49:39;2.33;;;0.20;;
22549;SDS011;11441;57.164;-2.120;2023-06-01T00:52:06;4.53;;;0.50;;
22549;SDS011;11441;57.164;-2.120;2023-06-01T00:57:21;1.42;;;0.32;;
22549;SDS011;11441;57.164;-2.120;2023-06-01T00:59:53;0.65;;;0.30;;
22549;SDS011;11441;57.164;-2.120;2023-06-01T01:02:21;0.50;;;0.40;;
22549;SDS011;11441;57.164;-2.120;2023-06-01T01:07:44;2.00;;;0.25;;
22549;SDS011;11441;57.164;-2.120;2023-06-01T01:10:52;1.30;;;0.50;;
22549;SDS011;11441;57.164;-2.120;2023-06-01T01:13:44;1.75;;;0.50;;
22549;SDS011;11441;57.164;-2.120;2023-06-01T01:16:30;0.47;;;0.38;;
22549;SDS011;11441;57.164;-2.120;2023-06-01T01:21:36;1.38;;;0.30;;
22549;SDS011;11441;57.164;-2.120;2023-06-01T01:26:52;1.48;;;0.52;;
22549;SDS011;11441;57.164;-2.120;2023-06-01T01:29:30;1.60;;;0.45;;
22549;SDS011;11441;57.164;-2.120;2023-06-01T01:31:59;1.25;;;0.30;;
22549;SDS011;11441;57.164;-2.120;2023-06-01T01:34:29;1.90;;;0.47;;
22549;SDS011;11441;57.164;-2.120;2023-06-01T01:36:57;2.13;;;0.30;;
22549;SDS011;11441;57.164;-2.120;2023-06-01T01:39:25;5.47;;;0.60;;
22549;SDS011;11441;57.164;-2.120;2023-06-01T01:41:52;0.55;;;0.30;;
22549;SDS011;11441;57.164;-2.120;2023-06-01T01:44:37;1.35;;;0.55;;
22549;SDS011;11441;57.164;-2.120;2023-06-01T01:49:58;1.00;;;0.45;;
22549;SDS011;11441;57.164;-2.120;2023-06-01T01:52:33;0.98;;;0.60;;
22549;SDS011;11441;57.164;-2.120;2023-06-01T01:55:07;0.30;;;0.22;;
22549;SDS011;11441;57.164;-2.120;2023-06-01T01:57:36;1.35;;;0.60;;
22549;SDS011;11441;57.164;-2.120;2023-06-01T02:00:06;1.27;;;0.20;;
22549;SDS011;11441;57.164;-2.120;2023-06-01T02:02:40;0.75;;;0.40;;
22549;SDS011;11441;57.164;-2.120;2023-06-01T02:05:07;0.63;;;0.45;;
22549;SDS011;11441;57.164;-2.120;2023-06-01T02:07:34;6.68;;;0.60;;
22549;SDS011;11441;57.164;-2.120;2023-06-01T02:10:03;1.70;;;0.40;;
22549;SDS011;11441;57.164;-2.120;2023-06-01T02:12:31;1.02;;;0.47;;
22549;SDS011;11441;57.164;-2.120;2023-06-01T02:14:58;2.05;;;0.30;;
22549;SDS011;11441;57.164;-2.120;2023-06-01T02:17:25;2.78;;;0.47;;
22549;SDS011;11441;57.164;-2.120;2023-06-01T02:20:12;1.63;;;0.30;;
22549;SDS011;11441;57.164;-2.120;2023-06-01T02:22:58;0.68;;;0.30;;
22549;SDS011;11441;57.164;-2.120;2023-06-01T02:25:25;3.20;;;0.20;;
22549;SDS011;11441;57.164;-2.120;2023-06-01T02:27:52;1.17;;;0.65;;
22549;SDS011;11441;57.164;-2.120;2023-06-01T02:30:19;4.70;;;0.35;;
22549;SDS011;11441;57.164;-2.120;2023-06-01T02:32:46;1.25;;;0.40;;
22549;SDS011;11441;57.164;-2.120;2023-06-01T02:35:15;0.35;;;0.30;;
22549;SDS011;11441;57.164;-2.120;2023-06-01T02:40:28;0.30;;;0.20;;
22549;SDS011;11441;57.164;-2.120;2023-06-01T02:42:55;2.72;;;0.30;;
22549;SDS011;11441;57.164;-2.120;2023-06-01T02:45:22;0.75;;;0.30;;
22549;SDS011;11441;57.164;-2.120;2023-06-01T02:47:49;1.25;;;0.40;;
22549;SDS011;11441;57.164;-2.120;2023-06-01T02:50:16;1.30;;;0.38;;
22549;SDS011;11441;57.164;-2.120;2023-06-01T02:52:47;2.65;;;0.38;;
22549;SDS011;11441;57.164;-2.120;2023-06-01T02:55:15;0.65;;;0.10;;
22549;SDS011;11441;57.164;-2.120;2023-06-01T02:57:54;2.22;;;0.30;;
22549;SDS011;11441;57.164;-2.120;2023-06-01T03:00:22;1.85;;;0.40;;
22549;SDS011;11441;57.164;-2.120;2023-06-01T03:02:49;0.88;;;0.30;;
22549;SDS011;11441;57.164;-2.120;2023-06-01T03:05:16;1.40;;;0.30;;
22549;SDS011;11441;57.164;-2.120;2023-06-01T03:08:03;3.42;;;0.50;;
22549;SDS011;11441;57.164;-2.120;2023-06-01T03:13:23;0.20;;;0.20;;
22549;SDS011;11441;57.164;-2.120;2023-06-01T03:15:50;0.57;;;0.20;;
22549;SDS011;11441;57.164;-2.120;2023-06-01T03:18:18;3.25;;;0.30;;
22549;SDS011;11441;57.164;-2.120;2023-06-01T03:21:04;1.83;;;0.20;;
22549;SDS011;11441;57.164;-2.120;2023-06-01T03:23:33;1.80;;;0.30;;
22549;SDS011;11441;57.164;-2.120;2023-06-01T03:26:18;0.32;;;0.20;;
22549;SDS011;11441;57.164;-2.120;2023-06-01T03:28:47;2.05;;;0.52;;
22549;SDS011;11441;57.164;-2.120;2023-06-01T03:31:14;0.38;;;0.28;;
22549;SDS011;11441;57.164;-2.120;2023-06-01T03:33:43;0.90;;;0.40;;
22549;SDS011;11441;57.164;-2.120;2023-06-01T03:36:10;0.30;;;0.20;;
22549;SDS011;11441;57.164;-2.120;2023-06-01T03:38:38;0.35;;;0.25;;
22549;SDS011;11441;57.164;-2.120;2023-06-01T03:41:05;1.58;;;0.13;;
22549;SDS011;11441;57.164;-2.120;2023-06-01T03:43:32;2.08;;;0.30;;
22549;SDS011;11441;57.164;-2.120;2023-06-01T03:46:00;2.17;;;0.30;;
22549;SDS011;11441;57.164;-2.120;2023-06-01T03:48:27;2.08;;;0.43;;
22549;SDS011;11441;57.164;-2.120;2023-06-01T03:50:55;1.00;;;0.40;;
22549;SDS011;11441;57.164;-2.120;2023-06-01T03:53:22;0.73;;;0.30;;
22549;SDS011;11441;57.164;-2.120;2023-06-01T03:55:49;0.63;;;0.20;;
22549;SDS011;11441;57.164;-2.120;2023-06-01T03:58:31;1.65;;;0.45;;
22549;SDS011;11441;57.164;-2.120;2023-06-01T04:00:58;0.82;;;0.35;;
22549;SDS011;11441;57.164;-2.120;2023-06-01T04:03:27;1.05;;;0.40;;
22549;SDS011;11441;57.164;-2.120;2023-06-01T04:05:55;0.80;;;0.30;;
22549;SDS011;11441;57.164;-2.120;2023-06-01T04:08:26;0.45;;;0.32;;
22549;SDS011;11441;57.164;-2.120;2023-06-01T04:10:53;3.15;;;0.40;;
22549;SDS011;11441;57.164;-2.120;2023-06-01T04:13:21;1.30;;;0.20;;
22549;SDS011;11441;57.164;-2.120;2023-06-01T04:15:48;0.77;;;0.30;;
22549;SDS011;11441;57.164;-2.120;2023-06-01T04:18:19;0.75;;;0.30;;
22549;SDS011;11441;57.164;-2.120;2023-06-01T04:20:54;1.00;;;0.30;;
22549;SDS011;11441;57.164;-2.120;2023-06-01T04:23:22;1.52;;;0.30;;
22549;SDS011;11441;57.164;-2.120;2023-06-01T04:25:49;1.45;;;0.30;;
22549;SDS011;11441;57.164;-2.120;2023-06-01T04:28:20;0.80;;;0.20;;
22549;SDS011;11441;57.164;-2.120;2023-06-01T04:30:48;1.17;;;0.20;;
22549;SDS011;11441;57.164;-2.120;2023-06-01T04:33:18;0.65;;;0.10;;
22549;SDS011;11441;57.164;-2.120;2023-06-01T04:35:45;0.85;;;0.20;;
22549;SDS011;11441;57.164;-2.120;2023-06-01T04:38:13;0.90;;;0.30;;
22549;SDS011;11441;57.164;-2.120;2023-06-01T04:40:47;1.00;;;0.30;;
22549;SDS011;11441;57.164;-2.120;2023-06-01T04:43:14;0.55;;;0.20;;
22549;SDS011;11441;57.164;-2.120;2023-06-01T04:45:45;0.75;;;0.30;;
22549;SDS011;11441;57.164;-2.120;2023-06-01T04:48:13;0.43;;;0.20;;
22549;SDS011;11441;57.164;-2.120;2023-06-01T04:50:55;0.13;;;0.13;;
22549;SDS011;11441;57.164;-2.120;2023-06-01T04:53:41;0.20;;;0.20;;
22549;SDS011;11441;57.164;-2.120;2023-06-01T04:56:08;0.85;;;0.20;;
22549;SDS011;11441;57.164;-2.120;2023-06-01T04:58:52;0.57;;;0.20;;
22549;SDS011;11441;57.164;-2.120;2023-06-01T05:01:21;1.10;;;0.13;;
22549;SDS011;11441;57.164;-2.120;2023-06-01T05:03:52;0.30;;;0.30;;
22549;SDS011;11441;57.164;-2.120;2023-06-01T05:06:21;0.82;;;0.20;;
22549;SDS011;11441;57.164;-2.120;2023-06-01T05:08:49;1.63;;;0.20;;
22549;SDS011;11441;57.164;-2.120;2023-06-01T05:11:17;0.90;;;0.20;;
22549;SDS011;11441;57.164;-2.120;2023-06-01T05:13:44;1.50;;;0.20;;
22549;SDS011;11441;57.164;-2.120;2023-06-01T05:16:11;1.17;;;0.22;;
22549;SDS011;11441;57.164;-2.120;2023-06-01T05:18:39;0.93;;;0.40;;
22549;SDS011;11441;57.164;-2.120;2023-06-01T05:21:08;1.77;;;0.30;;
22549;SDS011;11441;57.164;-2.120;2023-06-01T05:23:53;0.20;;;0.20;;
22549;SDS011;11441;57.164;-2.120;2023-06-01T05:26:22;0.85;;;0.30;;
22549;SDS011;11441;57.164;-2.120;2023-06-01T05:28:49;1.95;;;0.20;;
22549;SDS011;11441;57.164;-2.120;2023-06-01T05:31:16;0.95;;;0.30;;
22549;SDS011;11441;57.164;-2.120;2023-06-01T05:33:48;0.40;;;0.30;;
22549;SDS011;11441;57.164;-2.120;2023-06-01T05:36:15;2.13;;;0.38;;
22549;SDS011;11441;57.164;-2.120;2023-06-01T05:38:42;0.85;;;0.30;;
22549;SDS011;11441;57.164;-2.120;2023-06-01T05:41:11;0.43;;;0.30;;
22549;SDS011;11441;57.164;-2.120;2023-06-01T05:43:39;0.60;;;0.40;;
22549;SDS011;11441;57.164;-2.120;2023-06-01T05:46:06;3.38;;;0.65;;
22549;SDS011;11441;57.164;-2.120;2023-06-01T05:48:35;0.82;;;0.50;;
22549;SDS011;11441;57.164;-2.120;2023-06-01T05:51:06;1.35;;;0.45;;
22549;SDS011;11441;57.164;-2.120;2023-06-01T05:53:33;1.88;;;0.50;;
22549;SDS011;11441;57.164;-2.120;2023-06-01T05:56:01;1.98;;;0.57;;
22549;SDS011;11441;57.164;-2.120;2023-06-01T05:58:29;3.63;;;0.90;;
22549;SDS011;11441;57.164;-2.120;2023-06-01T06:00:57;2.70;;;0.85;;
22549;SDS011;11441;57.164;-2.120;2023-06-01T06:03:24;3.40;;;0.85;;
22549;SDS011;11441;57.164;-2.120;2023-06-01T06:05:51;1.92;;;0.68;;
22549;SDS011;11441;57.164;-2.120;2023-06-01T06:08:18;2.42;;;0.60;;
22549;SDS011;11441;57.164;-2.120;2023-06-01T06:10:45;4.55;;;1.10;;
22549;SDS011;11441;57.164;-2.120;2023-06-01T06:13:13;6.07;;;1.48;;
22549;SDS011;11441;57.164;-2.120;2023-06-01T06:15:41;3.50;;;0.80;;
22549;SDS011;11441;57.164;-2.120;2023-06-01T06:18:08;4.90;;;1.23;;
22549;SDS011;11441;57.164;-2.120;2023-06-01T06:20:35;3.72;;;1.10;;
22549;SDS011;11441;57.164;-2.120;2023-06-01T06:23:02;3.83;;;0.93;;
22549;SDS011;11441;57.164;-2.120;2023-06-01T06:25:29;4.82;;;1.13;;
22549;SDS011;11441;57.164;-2.120;2023-06-01T06:27:56;4.85;;;1.27;;
22549;SDS011;11441;57.164;-2.120;2023-06-01T06:30:23;5.60;;;1.35;;
22549;SDS011;11441;57.164;-2.120;2023-06-01T06:32:51;6.65;;;1.42;;
22549;SDS011;11441;57.164;-2.120;2023-06-01T06:35:18;3.35;;;0.90;;
22549;SDS011;11441;57.164;-2.120;2023-06-01T06:37:45;3.40;;;0.82;;
22549;SDS011;11441;57.164;-2.120;2023-06-01T06:40:12;5.65;;;1.35;;
22549;SDS011;11441;57.164;-2.120;2023-06-01T06:42:39;8.40;;;1.20;;
22549;SDS011;11441;57.164;-2.120;2023-06-01T06:48:11;7.07;;;1.00;;
22549;SDS011;11441;57.164;-2.120;2023-06-01T06:50:38;3.95;;;0.88;;
22549;SDS011;11441;57.164;-2.120;2023-06-01T06:53:10;8.85;;;1.05;;
22549;SDS011;11441;57.164;-2.120;2023-06-01T06:55:38;5.13;;;1.15;;
22549;SDS011;11441;57.164;-2.120;2023-06-01T06:58:05;2.35;;;0.88;;
22549;SDS011;11441;57.164;-2.120;2023-06-01T07:00:49;3.90;;;0.70;;
22549;SDS011;11441;57.164;-2.120;2023-06-01T07:03:17;5.07;;;0.88;;
22549;SDS011;11441;57.164;-2.120;2023-06-01T07:05:44;5.53;;;1.17;;
22549;SDS011;11441;57.164;-2.120;2023-06-01T07:08:14;2.45;;;0.63;;
22549;SDS011;11441;57.164;-2.120;2023-06-01T07:10:41;6.50;;;0.80;;
22549;SDS011;11441;57.164;-2.120;2023-06-01T07:13:08;3.35;;;0.60;;
22549;SDS011;11441;57.164;-2.120;2023-06-01T07:15:35;5.07;;;1.13;;
22549;SDS011;11441;57.164;-2.120;2023-06-01T07:18:02;2.92;;;0.60;;
22549;SDS011;11441;57.164;-2.120;2023-06-01T07:20:29;2.58;;;0.60;;
22549;SDS011;11441;57.164;-2.120;2023-06-01T07:22:56;7.35;;;1.10;;
22549;SDS011;11441;57.164;-2.120;2023-06-01T07:25:23;3.17;;;0.60;;
22549;SDS011;11441;57.164;-2.120;2023-06-01T07:27:50;9.75;;;0.75;;
22549;SDS011;11441;57.164;-2.120;2023-06-01T07:33:03;3.53;;;0.75;;
22549;SDS011;11441;57.164;-2.120;2023-06-01T07:38:19;3.58;;;0.90;;
22549;SDS011;11441;57.164;-2.120;2023-06-01T07:40:46;5.20;;;1.38;;
22549;SDS011;11441;57.164;-2.120;2023-06-01T07:43:13;6.03;;;1.27;;
22549;SDS011;11441;57.164;-2.120;2023-06-01T07:45:40;7.05;;;1.13;;
22549;SDS011;11441;57.164;-2.120;2023-06-01T07:48:07;5.03;;;1.23;;
22549;SDS011;11441;57.164;-2.120;2023-06-01T07:50:36;4.18;;;1.20;;
22549;SDS011;11441;57.164;-2.120;2023-06-01T07:53:03;5.32;;;0.93;;
22549;SDS011;11441;57.164;-2.120;2023-06-01T07:55:30;6.85;;;1.35;;
22549;SDS011;11441;57.164;-2.120;2023-06-01T07:57:57;3.67;;;1.40;;
22549;SDS011;11441;57.164;-2.120;2023-06-01T08:00:24;6.95;;;1.33;;
22549;SDS011;11441;57.164;-2.120;2023-06-01T08:02:52;4.65;;;0.95;;
22549;SDS011;11441;57.164;-2.120;2023-06-01T08:05:19;4.15;;;1.00;;
22549;SDS011;11441;57.164;-2.120;2023-06-01T08:07:47;4.55;;;1.05;;
22549;SDS011;11441;57.164;-2.120;2023-06-01T08:10:15;3.60;;;1.30;;
22549;SDS011;11441;57.164;-2.120;2023-06-01T08:12:42;2.60;;;0.60;;
22549;SDS011;11441;57.164;-2.120;2023-06-01T08:15:10;6.20;;;1.23;;
22549;SDS011;11441;57.164;-2.120;2023-06-01T08:17:38;6.22;;;1.63;;
22549;SDS011;11441;57.164;-2.120;2023-06-01T08:20:05;5.35;;;1.00;;
22549;SDS011;11441;57.164;-2.120;2023-06-01T08:22:37;5.65;;;1.02;;
22549;SDS011;11441;57.164;-2.120;2023-06-01T08:25:04;4.93;;;1.40;;
22549;SDS011;11441;57.164;-2.120;2023-06-01T08:27:32;5.20;;;1.40;;
22549;SDS011;11441;57.164;-2.120;2023-06-01T08:30:17;4.30;;;1.02;;
22549;SDS011;11441;57.164;-2.120;2023-06-01T08:32:44;3.72;;;1.02;;
22549;SDS011;11441;57.164;-2.120;2023-06-01T08:35:11;3.20;;;0.75;;
22549;SDS011;11441;57.164;-2.120;2023-06-01T08:37:39;5.07;;;1.35;;
22549;SDS011;11441;57.164;-2.120;2023-06-01T08:40:06;4.80;;;1.20;;
22549;SDS011;11441;57.164;-2.120;2023-06-01T08:42:46;3.05;;;0.98;;
22549;SDS011;11441;57.164;-2.120;2023-06-01T08:45:24;4.25;;;0.60;;
22549;SDS011;11441;57.164;-2.120;2023-06-01T08:47:52;5.35;;;1.50;;
22549;SDS011;11441;57.164;-2.120;2023-06-01T08:50:20;0.82;;;0.57;;
22549;SDS011;11441;57.164;-2.120;2023-06-01T08:52:48;2.97;;;0.80;;
22549;SDS011;11441;57.164;-2.120;2023-06-01T08:55:19;1.83;;;0.40;;
22549;SDS011;11441;57.164;-2.120;2023-06-01T08:57:46;3.28;;;0.73;;
22549;SDS011;11441;57.164;-2.120;2023-06-01T09:00:13;3.78;;;1.17;;
22549;SDS011;11441;57.164;-2.120;2023-06-01T09:02:42;3.45;;;0.80;;
22549;SDS011;11441;57.164;-2.120;2023-06-01T09:05:09;2.28;;;0.77;;
22549;SDS011;11441;57.164;-2.120;2023-06-01T09:07:38;2.35;;;0.85;;
22549;SDS011;11441;57.164;-2.120;2023-06-01T09:10:06;6.57;;;0.82;;
22549;SDS011;11441;57.164;-2.120;2023-06-01T09:12:34;4.22;;;0.95;;
22549;SDS011;11441;57.164;-2.120;2023-06-01T09:17:37;4.18;;;1.55;;
22549;SDS011;11441;57.164;-2.120;2023-06-01T09:20:12;2.97;;;0.70;;
22549;SDS011;11441;57.164;-2.120;2023-06-01T09:25:07;7.30;;;0.95;;
22549;SDS011;11441;57.164;-2.120;2023-06-01T09:27:47;3.30;;;0.77;;
22549;SDS011;11441;57.164;-2.120;2023-06-01T09:30:19;10.38;;;1.52;;
22549;SDS011;11441;57.164;-2.120;2023-06-01T09:32:47;4.22;;;1.25;;
22549;SDS011;11441;57.164;-2.120;2023-06-01T09:41:03;4.00;;;1.00;;
22549;SDS011;11441;57.164;-2.120;2023-06-01T09:43:33;4.63;;;0.88;;
22549;SDS011;11441;57.164;-2.120;2023-06-01T09:46:07;5.80;;;1.20;;
22549;SDS011;11441;57.164;-2.120;2023-06-01T09:48:35;2.90;;;1.10;;
22549;SDS011;11441;57.164;-2.120;2023-06-01T09:51:03;2.88;;;1.00;;
22549;SDS011;11441;57.164;-2.120;2023-06-01T09:53:49;3.60;;;0.93;;
22549;SDS011;11441;57.164;-2.120;2023-06-01T09:56:16;5.13;;;1.40;;
22549;SDS011;11441;57.164;-2.120;2023-06-01T09:58:44;5.47;;;1.30;;
22549;SDS011;11441;57.164;-2.120;2023-06-01T10:01:10;7.53;;;1.08;;
22549;SDS011;11441;57.164;-2.120;2023-06-01T10:03:42;5.35;;;1.08;;
22549;SDS011;11441;57.164;-2.120;2023-06-01T10:09:15;8.70;;;1.15;;
22549;SDS011;11441;57.164;-2.120;2023-06-01T10:11:46;7.75;;;1.25;;
22549;SDS011;11441;57.164;-2.120;2023-06-01T10:14:15;11.50;;;2.25;;
22549;SDS011;11441;57.164;-2.120;2023-06-01T10:16:43;6.60;;;1.40;;
22549;SDS011;11441;57.164;-2.120;2023-06-01T10:19:27;4.65;;;1.45;;
22549;SDS011;11441;57.164;-2.120;2023-06-01T10:21:59;4.95;;;1.42;;
22549;SDS011;11441;57.164;-2.120;2023-06-01T10:24:27;8.18;;;1.00;;
22549;SDS011;11441;57.164;-2.120;2023-06-01T10:29:21;5.30;;;1.20;;
22549;SDS011;11441;57.164;-2.120;2023-06-01T10:31:50;6.72;;;1.60;;
22549;SDS011;11441;57.164;-2.120;2023-06-01T10:34:36;9.98;;;1.42;;
22549;SDS011;11441;57.164;-2.120;2023-06-01T10:39:52;5.28;;;1.20;;
22549;SDS011;11441;57.164;-2.120;2023-06-01T10:45:01;7.72;;;1.27;;
22549;SDS011;11441;57.164;-2.120;2023-06-01T10:50:33;5.90;;;1.50;;
22549;SDS011;11441;57.164;-2.120;2023-06-01T11:01:44;12.15;;;1.30;;
22549;SDS011;11441;57.164;-2.120;2023-06-01T11:04:13;4.28;;;1.73;;
22549;SDS011;11441;57.164;-2.120;2023-06-01T11:06:59;8.00;;;1.50;;
22549;SDS011;11441;57.164;-2.120;2023-06-01T11:13:12;9.30;;;1.17;;
22549;SDS011;11441;57.164;-2.120;2023-06-01T11:24:08;9.10;;;3.67;;
22549;SDS011;11441;57.164;-2.120;2023-06-01T11:26:42;11.15;;;3.03;;
22549;SDS011;11441;57.164;-2.120;2023-06-01T11:29:15;3.90;;;1.05;;
22549;SDS011;11441;57.164;-2.120;2023-06-01T11:31:43;3.00;;;1.17;;
22549;SDS011;11441;57.164;-2.120;2023-06-01T11:34:34;7.30;;;1.05;;
22549;SDS011;11441;57.164;-2.120;2023-06-01T11:37:15;2.40;;;1.02;;
22549;SDS011;11441;57.164;-2.120;2023-06-01T11:40:06;5.95;;;1.35;;
22549;SDS011;11441;57.164;-2.120;2023-06-01T11:42:34;5.88;;;1.17;;
22549;SDS011;11441;57.164;-2.120;2023-06-01T11:45:03;3.65;;;1.20;;
22549;SDS011;11441;57.164;-2.120;2023-06-01T11:47:31;7.22;;;1.60;;
22549;SDS011;11441;57.164;-2.120;2023-06-01T11:49:58;6.93;;;1.25;;
22549;SDS011;11441;57.164;-2.120;2023-06-01T11:52:26;8.02;;;1.00;;
22549;SDS011;11441;57.164;-2.120;2023-06-01T11:54:53;5.88;;;1.70;;
22549;SDS011;11441;57.164;-2.120;2023-06-01T11:57:28;5.43;;;1.42;;
22549;SDS011;11441;57.164;-2.120;2023-06-01T11:59:55;7.13;;;2.63;;
22549;SDS011;11441;57.164;-2.120;2023-06-01T12:02:23;4.97;;;2.15;;
22549;SDS011;11441;57.164;-2.120;2023-06-01T12:04:58;4.20;;;0.90;;
22549;SDS011;11441;57.164;-2.120;2023-06-01T12:07:45;4.93;;;1.48;;
22549;SDS011;11441;57.164;-2.120;2023-06-01T12:10:15;5.25;;;0.80;;
22549;SDS011;11441;57.164;-2.120;2023-06-01T12:12:43;3.05;;;0.95;;
22549;SDS011;11441;57.164;-2.120;2023-06-01T12:15:11;1.92;;;0.55;;
22549;SDS011;11441;57.164;-2.120;2023-06-01T12:17:49;5.05;;;0.70;;
22549;SDS011;11441;57.164;-2.120;2023-06-01T12:20:30;3.35;;;0.93;;
22549;SDS011;11441;57.164;-2.120;2023-06-01T12:25:52;6.10;;;0.80;;
22549;SDS011;11441;57.164;-2.120;2023-06-01T12:28:26;3.75;;;0.93;;
22549;SDS011;11441;57.164;-2.120;2023-06-01T12:31:07;1.55;;;0.60;;
22549;SDS011;11441;57.164;-2.120;2023-06-01T12:33:44;3.85;;;0.98;;
22549;SDS011;11441;57.164;-2.120;2023-06-01T12:36:33;7.22;;;0.88;;
22549;SDS011;11441;57.164;-2.120;2023-06-01T12:42:08;3.85;;;0.90;;
22549;SDS011;11441;57.164;-2.120;2023-06-01T12:44:38;4.90;;;0.57;;
22549;SDS011;11441;57.164;-2.120;2023-06-01T12:47:08;2.92;;;0.88;;
22549;SDS011;11441;57.164;-2.120;2023-06-01T12:49:35;6.07;;;0.40;;
22549;SDS011;11441;57.164;-2.120;2023-06-01T12:52:04;1.33;;;0.52;;
22549;SDS011;11441;57.164;-2.120;2023-06-01T12:54:31;4.22;;;0.77;;
22549;SDS011;11441;57.164;-2.120;2023-06-01T12:56:58;0.75;;;0.40;;
22549;SDS011;11441;57.164;-2.120;2023-06-01T12:59:25;1.42;;;0.40;;
22549;SDS011;11441;57.164;-2.120;2023-06-01T13:01:53;0.55;;;0.28;;
22549;SDS011;11441;57.164;-2.120;2023-06-01T13:04:20;1.70;;;0.63;;
22549;SDS011;11441;57.164;-2.120;2023-06-01T13:06:47;0.30;;;0.20;;
22549;SDS011;11441;57.164;-2.120;2023-06-01T13:09:14;0.85;;;0.32;;
22549;SDS011;11441;57.164;-2.120;2023-06-01T13:11:41;1.00;;;0.50;;
22549;SDS011;11441;57.164;-2.120;2023-06-01T13:14:08;2.55;;;0.47;;
22549;SDS011;11441;57.164;-2.120;2023-06-01T13:16:35;1.23;;;0.43;;
22549;SDS011;11441;57.164;-2.120;2023-06-01T13:19:03;1.10;;;0.63;;
22549;SDS011;11441;57.164;-2.120;2023-06-01T13:21:30;2.67;;;0.60;;
22549;SDS011;11441;57.164;-2.120;2023-06-01T13:23:59;3.95;;;0.90;;
22549;SDS011;11441;57.164;-2.120;2023-06-01T13:26:27;6.85;;;1.25;;
22549;SDS011;11441;57.164;-2.120;2023-06-01T13:28:54;7.50;;;1.40;;
22549;SDS011;11441;57.164;-2.120;2023-06-01T13:31:21;4.03;;;0.85;;
22549;SDS011;11441;57.164;-2.120;2023-06-01T13:34:07;9.38;;;0.82;;
22549;SDS011;11441;57.164;-2.120;2023-06-01T13:39:20;4.55;;;0.68;;
22549;SDS011;11441;57.164;-2.120;2023-06-01T13:41:46;9.27;;;1.27;;
22549;SDS011;11441;57.164;-2.120;2023-06-01T13:44:13;5.78;;;0.80;;
22549;SDS011;11441;57.164;-2.120;2023-06-01T13:46:40;3.28;;;0.88;;
22549;SDS011;11441;57.164;-2.120;2023-06-01T13:49:07;5.05;;;1.52;;
22549;SDS011;11441;57.164;-2.120;2023-06-01T13:51:34;2.00;;;0.60;;
22549;SDS011;11441;57.164;-2.120;2023-06-01T13:54:04;6.80;;;1.33;;
22549;SDS011;11441;57.164;-2.120;2023-06-01T13:56:32;6.43;;;1.10;;
22549;SDS011;11441;57.164;-2.120;2023-06-01T13:58:59;4.72;;;1.30;;
22549;SDS011;11441;57.164;-2.120;2023-06-01T14:01:26;5.78;;;1.17;;
22549;SDS011;11441;57.164;-2.120;2023-06-01T14:03:53;5.97;;;1.38;;
22549;SDS011;11441;57.164;-2.120;2023-06-01T14:06:20;8.98;;;1.20;;
22549;SDS011;11441;57.164;-2.120;2023-06-01T14:08:47;6.45;;;1.40;;
22549;SDS011;11441;57.164;-2.120;2023-06-01T14:11:15;9.68;;;1.60;;
22549;SDS011;11441;57.164;-2.120;2023-06-01T14:13:42;9.00;;;1.85;;
22549;SDS011;11441;57.164;-2.120;2023-06-01T14:16:09;8.55;;;1.88;;
22549;SDS011;11441;57.164;-2.120;2023-06-01T14:18:37;8.88;;;1.30;;
22549;SDS011;11441;57.164;-2.120;2023-06-01T14:21:04;5.15;;;1.40;;
22549;SDS011;11441;57.164;-2.120;2023-06-01T14:23:31;9.23;;;2.10;;
22549;SDS011;11441;57.164;-2.120;2023-06-01T14:25:58;14.73;;;1.30;;
22549;SDS011;11441;57.164;-2.120;2023-06-01T14:28:25;4.38;;;1.17;;
22549;SDS011;11441;57.164;-2.120;2023-06-01T14:30:52;8.20;;;1.83;;
22549;SDS011;11441;57.164;-2.120;2023-06-01T14:33:18;10.38;;;1.60;;
22549;SDS011;11441;57.164;-2.120;2023-06-01T14:35:45;8.10;;;1.25;;
22549;SDS011;11441;57.164;-2.120;2023-06-01T14:38:12;5.10;;;1.50;;
22549;SDS011;11441;57.164;-2.120;2023-06-01T14:40:39;5.07;;;1.55;;
22549;SDS011;11441;57.164;-2.120;2023-06-01T14:43:24;8.43;;;1.77;;
22549;SDS011;11441;57.164;-2.120;2023-06-01T14:45:51;9.57;;;2.47;;
22549;SDS011;11441;57.164;-2.120;2023-06-01T14:48:18;7.85;;;1.95;;
22549;SDS011;11441;57.164;-2.120;2023-06-01T14:50:45;13.68;;;1.65;;
22549;SDS011;11441;57.164;-2.120;2023-06-01T14:53:12;8.25;;;1.30;;
22549;SDS011;11441;57.164;-2.120;2023-06-01T14:55:39;4.70;;;1.13;;
22549;SDS011;11441;57.164;-2.120;2023-06-01T14:58:09;3.47;;;0.90;;
22549;SDS011;11441;57.164;-2.120;2023-06-01T15:00:37;4.28;;;0.77;;
22549;SDS011;11441;57.164;-2.120;2023-06-01T15:03:04;5.25;;;0.70;;
22549;SDS011;11441;57.164;-2.120;2023-06-01T15:05:31;6.55;;;1.52;;
22549;SDS011;11441;57.164;-2.120;2023-06-01T15:07:59;7.13;;;1.10;;
22549;SDS011;11441;57.164;-2.120;2023-06-01T15:10:27;7.25;;;1.48;;
22549;SDS011;11441;57.164;-2.120;2023-06-01T15:12:54;7.80;;;1.15;;
22549;SDS011;11441;57.164;-2.120;2023-06-01T15:15:21;7.35;;;1.40;;
22549;SDS011;11441;57.164;-2.120;2023-06-01T15:17:48;10.18;;;1.23;;
22549;SDS011;11441;57.164;-2.120;2023-06-01T15:20:34;4.93;;;0.82;;
22549;SDS011;11441;57.164;-2.120;2023-06-01T15:23:01;6.97;;;1.40;;
22549;SDS011;11441;57.164;-2.120;2023-06-01T15:25:28;9.15;;;1.48;;
22549;SDS011;11441;57.164;-2.120;2023-06-01T15:27:54;7.65;;;1.38;;
22549;SDS011;11441;57.164;-2.120;2023-06-01T15:30:21;5.30;;;1.40;;
22549;SDS011;11441;57.164;-2.120;2023-06-01T15:33:06;6.65;;;1.50;;
22549;SDS011;11441;57.164;-2.120;2023-06-01T15:35:34;6.20;;;1.30;;
22549;SDS011;11441;57.164;-2.120;2023-06-01T15:38:01;1.80;;;0.90;;
22549;SDS011;11441;57.164;-2.120;2023-06-01T15:40:28;3.03;;;1.10;;
22549;SDS011;11441;57.164;-2.120;2023-06-01T15:42:55;6.18;;;1.40;;
22549;SDS011;11441;57.164;-2.120;2023-06-01T15:45:22;6.22;;;1.33;;
22549;SDS011;11441;57.164;-2.120;2023-06-01T15:47:50;5.97;;;1.40;;
22549;SDS011;11441;57.164;-2.120;2023-06-01T15:50:17;9.00;;;1.98;;
22549;SDS011;11441;57.164;-2.120;2023-06-01T15:52:44;9.95;;;1.45;;
22549;SDS011;11441;57.164;-2.120;2023-06-01T15:55:11;6.40;;;1.10;;
22549;SDS011;11441;57.164;-2.120;2023-06-01T15:57:38;6.72;;;1.23;;
22549;SDS011;11441;57.164;-2.120;2023-06-01T16:00:05;8.77;;;2.22;;
22549;SDS011;11441;57.164;-2.120;2023-06-01T16:02:39;6.53;;;1.00;;
22549;SDS011;11441;57.164;-2.120;2023-06-01T16:05:07;9.82;;;1.30;;
22549;SDS011;11441;57.164;-2.120;2023-06-01T16:07:34;5.43;;;1.75;;
22549;SDS011;11441;57.164;-2.120;2023-06-01T16:10:01;5.13;;;1.52;;